Tazewell, Virginia
Current Conditions -  °F | °C
As of 1:35 AM on Friday 31 Oct 2014 (Local Time) from KJFZ Reporting Station
Clear Clear  
Wind Chill: 40°   Ceiling: Unl
Heat Index: 40°   Visibility: 10mi
Dew Point: 35°   Wind: 3mph
Humidity: 80%   Direction: 60°ENE
Pressure: 30"   Gusts: NA
Location:  37.11°N, 81.52°W
Report Text: KJFZ 310535Z AUTO 06003KT 10SM CLR 05/02 A3000 RMK AO2 T00470015
Loading
Personal Weather Stations






























Interactive Weather Map New forecast layout! Learn more

10-Day Weather Forecast

Advertisements
Track Severe Weather on mobile